Jenkins, Minnesota
Current Conditions -  °F | °C
As of 2:14 PM on Saturday 20 Dec 2014 (Local Time) from KPWC Reporting Station
Haze Haze  
Wind Chill: 20°   Ceiling: 700
Heat Index: 28°   Visibility: 4mi
Dew Point: 28°   Wind: 9mph
Humidity: 100%   Direction: 170°S
Pressure: 30.04"   Gusts: NA
Location:  46.65°N, 94.33°W
Report Text: KPWC 202014Z AUTO 17008KT 4SM BR OVC007 M02/M02 A3004 RMK AO2
Loading
Personal Weather Stations






























Interactive Weather Map New forecast layout! Learn more

10-Day Weather Forecast

Advertisements
Track Severe Weather on mobile